Terminal Aerodrome Forecast
Issued by NWS

Current Version | Previous Version | Text Only | Print | Product List | Glossary On
Versions: 1 2 3 4 5 6 7 8 9 10 11 12 13 14 15 16 17 18 19
048
FTUS43 KMPX 210520
TAFRNH
TAF
KRNH 210520Z 2106/2206 00000KT 4SM BR SKC
      TEMPO 2106/2110 1SM BR SCT003
     FM211300 15006KT P6SM SCT050 BKN200
     FM211700 13010KT P6SM VCSH SCT050 OVC100 PROB30 2120/2124 6SM
      -TSRA BKN040CB
     FM220000 14010KT P6SM VCTS BKN050CB OVC100=

USA.gov is the U.S. government's official web portal to all federal, state and local government web resources and services.